createdAt,value
2019-02-21T00:01:22.195Z,74.73
2019-02-21T00:03:48.051Z,74.73
2019-02-21T00:06:13.981Z,74.70
2019-02-21T00:08:40.206Z,74.71
2019-02-21T00:11:06.132Z,74.34
2019-02-21T00:13:32.109Z,74.66
2019-02-21T00:15:57.956Z,74.62
2019-02-21T00:18:23.792Z,74.81
2019-02-21T00:20:49.636Z,74.91
2019-02-21T00:23:15.490Z,74.72
2019-02-21T00:25:41.455Z,74.95
2019-02-21T00:28:07.402Z,74.86
2019-02-21T00:30:35.501Z,74.84
2019-02-21T00:33:01.110Z,74.76
2019-02-21T00:35:27.006Z,74.80
2019-02-21T00:37:53.013Z,75.02
2019-02-21T00:40:18.940Z,74.87
2019-02-21T00:42:44.811Z,74.69
2019-02-21T00:45:10.949Z,74.94
2019-02-21T00:47:36.786Z,75.18
2019-02-21T00:50:03.536Z,75.36
2019-02-21T00:52:31.412Z,75.41
2019-02-21T00:54:57.243Z,75.52
2019-02-21T00:57:23.068Z,75.46
2019-02-21T00:59:50.871Z,75.30
2019-02-21T01:02:17.003Z,75.56
2019-02-21T01:04:42.935Z,75.67
2019-02-21T01:07:08.938Z,76.01
2019-02-21T01:09:34.796Z,75.51
2019-02-21T01:12:00.647Z,75.29
2019-02-21T01:14:26.525Z,74.83
2019-02-21T01:16:52.353Z,74.81
2019-02-21T01:19:18.168Z,74.67
2019-02-21T01:21:44.167Z,74.87
2019-02-21T01:24:10.118Z,74.82
2019-02-21T01:26:35.967Z,74.81
2019-02-21T01:29:01.839Z,74.78
2019-02-21T01:31:27.780Z,75.07
2019-02-21T01:33:53.760Z,75.17
2019-02-21T01:36:19.810Z,75.14
2019-02-21T01:38:45.667Z,75.44
2019-02-21T01:41:11.598Z,75.32
2019-02-21T01:43:37.561Z,75.71
2019-02-21T01:46:03.526Z,75.59
2019-02-21T01:48:29.710Z,75.50
2019-02-21T01:50:55.709Z,75.17
2019-02-21T01:53:21.706Z,75.32
2019-02-21T01:55:47.651Z,74.97
2019-02-21T01:58:13.486Z,74.78
2019-02-21T02:00:39.492Z,74.90
2019-02-21T02:03:05.617Z,74.97
2019-02-21T02:05:31.548Z,75.13
2019-02-21T02:07:57.634Z,74.90
2019-02-21T02:10:23.721Z,74.97
2019-02-21T02:12:49.645Z,74.80
2019-02-21T02:15:15.713Z,74.70
2019-02-21T02:17:41.573Z,74.75
2019-02-21T02:20:07.723Z,75.06
2019-02-21T02:22:33.672Z,75.01
2019-02-21T02:24:59.512Z,75.11
2019-02-21T02:27:25.443Z,74.93
2019-02-21T02:29:51.281Z,75.28
2019-02-21T02:32:17.241Z,75.29
2019-02-21T02:34:43.326Z,75.48
2019-02-21T02:37:09.172Z,75.50
2019-02-21T02:39:35.005Z,75.11
2019-02-21T02:42:00.929Z,74.95
2019-02-21T02:44:26.789Z,75.30
2019-02-21T02:46:52.672Z,75.00
2019-02-21T02:49:18.519Z,75.07
2019-02-21T02:51:44.334Z,75.18
2019-02-21T02:54:10.354Z,75.49
2019-02-21T02:56:36.295Z,75.83
2019-02-21T02:59:02.241Z,75.52
2019-02-21T03:01:34.883Z,75.07
2019-02-21T03:03:56.414Z,75.04
2019-02-21T03:06:22.277Z,75.36
2019-02-21T03:08:48.146Z,75.02
2019-02-21T03:11:14.091Z,75.37
2019-02-21T03:13:40.032Z,75.49
2019-02-21T03:16:06.080Z,75.21
2019-02-21T03:18:31.971Z,75.16
2019-02-21T03:20:57.935Z,75.39
2019-02-21T03:23:23.826Z,76.11
2019-02-21T03:25:49.651Z,76.10
2019-02-21T03:28:15.590Z,76.16
2019-02-21T03:30:41.559Z,75.77
2019-02-21T03:33:07.492Z,75.49
2019-02-21T03:35:33.349Z,75.34
2019-02-21T03:37:59.240Z,75.73
2019-02-21T03:40:25.169Z,75.71
2019-02-21T03:42:51.000Z,75.87
2019-02-21T03:45:17.184Z,75.79
2019-02-21T03:47:43.137Z,75.75
2019-02-21T03:50:10.076Z,75.52
2019-02-21T03:52:36.071Z,75.68
2019-02-21T03:55:02.539Z,75.89
2019-02-21T03:57:28.382Z,76.50
2019-02-21T03:59:54.474Z,76.49
2019-02-21T04:02:20.468Z,76.05
2019-02-21T04:04:50.293Z,76.08
2019-02-21T04:07:16.297Z,76.48
2019-02-21T04:09:42.338Z,75.96
2019-02-21T04:12:08.221Z,76.23
2019-02-21T04:14:34.187Z,76.00
2019-02-21T04:17:00.043Z,76.11
2019-02-21T04:19:25.890Z,76.20
2019-02-21T04:21:51.948Z,76.33
2019-02-21T04:24:18.017Z,76.55
2019-02-21T04:26:43.963Z,76.55
2019-02-21T04:29:09.833Z,76.09
2019-02-21T04:31:35.874Z,76.03
2019-02-21T04:34:01.768Z,76.18
2019-02-21T04:36:27.634Z,75.95
2019-02-21T04:38:53.498Z,76.10
2019-02-21T04:41:19.574Z,75.85
2019-02-21T04:43:45.430Z,75.99
2019-02-21T04:46:11.235Z,76.09
2019-02-21T04:48:37.215Z,76.31
2019-02-21T04:51:03.156Z,76.31
2019-02-21T04:53:29.051Z,76.14
2019-02-21T04:55:54.896Z,76.45
2019-02-21T04:58:20.754Z,76.22
2019-02-21T05:00:46.732Z,76.07
2019-02-21T05:03:12.565Z,76.12
2019-02-21T05:05:38.476Z,76.09
2019-02-21T05:08:04.417Z,75.92
2019-02-21T05:10:30.290Z,76.39
2019-02-21T05:12:56.172Z,76.71
2019-02-21T05:15:22.043Z,76.81
2019-02-21T05:17:47.978Z,76.79
2019-02-21T05:20:13.823Z,76.56
2019-02-21T05:22:39.687Z,75.83
2019-02-21T05:25:05.868Z,75.87
2019-02-21T05:27:33.257Z,76.23
2019-02-21T05:29:59.208Z,76.33
2019-02-21T05:32:27.037Z,76.62
2019-02-21T05:35:13.135Z,77.21
2019-02-21T05:37:56.216Z,77.21
2019-02-21T05:40:32.992Z,77.67
2019-02-21T05:43:09.850Z,77.51
2019-02-21T05:45:40.601Z,77.60
2019-02-21T05:48:14.285Z,77.60
2019-02-21T05:50:58.726Z,77.06
2019-02-21T05:53:35.299Z,77.06
2019-02-21T05:56:18.172Z,77.37
2019-02-21T05:58:54.931Z,77.18
2019-02-21T06:01:35.096Z,77.21
2019-02-21T06:04:02.963Z,77.21
2019-02-21T06:06:31.040Z,76.85
2019-02-21T06:08:58.828Z,76.75
2019-02-21T06:11:26.572Z,76.28
2019-02-21T06:13:57.605Z,76.11
2019-02-21T06:16:25.350Z,76.11
2019-02-21T06:18:53.133Z,75.79
2019-02-21T06:21:26.760Z,75.51
2019-02-21T06:23:54.589Z,75.67
2019-02-21T06:26:28.337Z,75.51
2019-02-21T06:28:56.212Z,75.97
2019-02-21T06:31:22.105Z,76.08
2019-02-21T06:33:49.497Z,76.08
2019-02-21T06:36:15.571Z,76.07
2019-02-21T06:38:41.500Z,75.99
2019-02-21T06:41:07.371Z,76.11
2019-02-21T06:43:33.270Z,76.09
2019-02-21T06:45:59.117Z,75.86
2019-02-21T06:48:25.184Z,76.00
2019-02-21T06:50:51.092Z,75.84
2019-02-21T06:53:16.956Z,76.08
2019-02-21T06:55:45.510Z,75.75
2019-02-21T06:58:11.520Z,75.56
2019-02-21T07:00:37.454Z,75.24
2019-02-21T07:03:03.353Z,75.08
2019-02-21T07:05:29.510Z,74.78
2019-02-21T07:07:58.877Z,74.34
2019-02-21T07:10:24.855Z,73.46
2019-02-21T07:12:50.916Z,73.21
2019-02-21T07:15:16.931Z,73.27
2019-02-21T07:17:49.409Z,72.91
2019-02-21T07:20:12.920Z,72.71
2019-02-21T07:22:38.521Z,72.21
2019-02-21T07:25:06.850Z,72.11
2019-02-21T07:27:32.662Z,72.04
2019-02-21T07:29:58.593Z,71.93
2019-02-21T07:32:24.488Z,71.46
2019-02-21T07:34:50.305Z,70.69
2019-02-21T07:37:19.013Z,70.08
2019-02-21T07:39:44.126Z,69.78
2019-02-21T07:42:10.058Z,70.10
2019-02-21T07:44:35.896Z,69.76
2019-02-21T07:47:01.769Z,69.57
2019-02-21T07:49:27.713Z,68.96
2019-02-21T07:51:53.625Z,68.38
2019-02-21T07:54:19.447Z,67.95
2019-02-21T07:56:45.493Z,67.82
2019-02-21T07:59:12.273Z,66.79
2019-02-21T08:01:38.650Z,67.28
2019-02-21T08:04:04.608Z,66.91
2019-02-21T08:06:30.513Z,66.76
2019-02-21T08:08:56.421Z,66.34
2019-02-21T08:11:22.439Z,65.92
2019-02-21T08:13:48.452Z,65.44
2019-02-21T08:16:14.502Z,65.67
2019-02-21T08:18:40.366Z,65.39
2019-02-21T08:21:06.219Z,64.53
2019-02-21T08:23:32.570Z,64.66
2019-02-21T08:25:58.791Z,64.65
2019-02-21T08:28:24.616Z,65.02
2019-02-21T08:30:50.443Z,64.21
2019-02-21T08:33:24.018Z,64.34
2019-02-21T08:35:49.860Z,64.38
2019-02-21T08:38:15.917Z,63.62
2019-02-21T08:40:41.789Z,63.08
2019-02-21T08:43:07.626Z,62.83
2019-02-21T08:45:33.738Z,62.21
2019-02-21T08:47:59.601Z,61.82
2019-02-21T08:50:25.554Z,60.82
2019-02-21T08:52:51.520Z,61.00
2019-02-21T08:55:17.552Z,60.93
2019-02-21T08:57:43.530Z,59.73
2019-02-21T09:00:11.988Z,58.30
2019-02-21T09:02:38.025Z,58.27
2019-02-21T09:05:05.702Z,61.20
2019-02-21T09:07:31.584Z,61.22
2019-02-21T09:09:57.612Z,61.45
2019-02-21T09:12:23.567Z,60.73
2019-02-21T09:14:49.605Z,60.47
2019-02-21T09:17:15.529Z,60.33
2019-02-21T09:19:41.482Z,60.05
2019-02-21T09:22:07.478Z,60.04
2019-02-21T09:24:40.018Z,60.47
2019-02-21T09:27:01.270Z,60.13
2019-02-21T09:29:27.267Z,59.53
2019-02-21T09:31:53.122Z,59.25
2019-02-21T09:34:21.510Z,57.61
2019-02-21T09:36:46.887Z,57.06
2019-02-21T09:39:12.724Z,57.38
2019-02-21T09:41:38.770Z,56.90
2019-02-21T09:44:04.887Z,57.25
2019-02-21T09:46:30.828Z,57.06
2019-02-21T09:48:56.906Z,57.15
2019-02-21T09:51:22.747Z,57.03
2019-02-21T09:53:48.688Z,54.90
2019-02-21T09:56:14.640Z,54.81
2019-02-21T09:58:40.485Z,53.88
2019-02-21T10:01:06.405Z,53.14
2019-02-21T10:03:32.229Z,52.42
2019-02-21T10:05:58.054Z,53.01
2019-02-21T10:08:24.073Z,53.11
2019-02-21T10:10:50.025Z,52.49
2019-02-21T10:13:15.890Z,52.33
2019-02-21T10:15:41.755Z,52.82
2019-02-21T10:18:07.582Z,52.25
2019-02-21T10:20:33.535Z,51.61
2019-02-21T10:22:59.628Z,51.77
2019-02-21T10:25:27.274Z,50.94
2019-02-21T10:27:53.226Z,50.70
2019-02-21T10:30:21.054Z,50.18
2019-02-21T10:32:47.104Z,50.03
2019-02-21T10:35:13.199Z,49.71
2019-02-21T10:37:39.164Z,49.51
2019-02-21T10:40:08.088Z,49.28
2019-02-21T10:42:34.183Z,50.44
2019-02-21T10:45:00.036Z,50.40
2019-02-21T10:47:26.070Z,50.36
2019-02-21T10:49:52.154Z,49.57
2019-02-21T10:52:18.084Z,50.00
2019-02-21T10:54:44.059Z,49.79
2019-02-21T10:57:10.002Z,49.61
2019-02-21T10:59:46.299Z,49.99
2019-02-21T11:02:03.828Z,49.52
2019-02-21T11:04:29.771Z,49.61
2019-02-21T11:06:55.668Z,50.20
2019-02-21T11:09:21.682Z,50.54
2019-02-21T11:11:47.696Z,50.84
2019-02-21T11:14:13.596Z,50.94
2019-02-21T11:16:39.451Z,50.01
2019-02-21T11:19:05.406Z,49.62
2019-02-21T11:21:31.661Z,49.32
2019-02-21T11:23:57.523Z,49.32
2019-02-21T11:26:23.598Z,49.70
2019-02-21T11:28:49.562Z,50.13
2019-02-21T11:31:15.490Z,49.82
2019-02-21T11:33:41.551Z,49.55
2019-02-21T11:36:07.580Z,48.53
2019-02-21T11:38:33.555Z,48.13
2019-02-21T11:40:59.505Z,47.80
2019-02-21T11:43:25.563Z,47.30
2019-02-21T11:45:56.364Z,47.52
2019-02-21T11:48:19.482Z,48.23
2019-02-21T11:50:45.313Z,47.91
2019-02-21T11:53:11.230Z,46.92
2019-02-21T11:55:37.047Z,46.69
2019-02-21T11:58:02.877Z,46.19
2019-02-21T12:00:29.456Z,45.58
2019-02-21T12:02:55.419Z,46.01
2019-02-21T12:05:30.564Z,46.38
2019-02-21T12:07:50.046Z,46.69
2019-02-21T12:10:16.102Z,46.64
2019-02-21T12:12:42.091Z,46.95
2019-02-21T12:15:10.119Z,47.27
2019-02-21T12:17:36.054Z,48.19
2019-02-21T12:20:04.128Z,47.60
2019-02-21T12:22:30.164Z,44.12
2019-02-21T12:24:55.999Z,41.79
2019-02-21T12:27:21.994Z,34.51
2019-02-21T12:29:47.823Z,37.37
2019-02-21T12:32:13.916Z,32.44
2019-02-21T12:34:39.840Z,31.45
2019-02-21T12:37:05.794Z,29.64
2019-02-21T12:39:31.667Z,29.79
2019-02-21T12:41:57.504Z,28.77
2019-02-21T12:44:23.450Z,31.87
2019-02-21T12:46:49.316Z,34.10
2019-02-21T12:49:15.150Z,32.52
2019-02-21T12:51:41.005Z,33.65
2019-02-21T12:54:06.888Z,36.42
2019-02-21T12:56:32.838Z,32.87
2019-02-21T12:58:58.785Z,30.47
2019-02-21T13:01:24.699Z,27.02
2019-02-21T13:03:50.653Z,24.46
2019-02-21T13:06:16.603Z,29.37
2019-02-21T13:08:42.485Z,28.45
2019-02-21T13:11:08.314Z,25.21
2019-02-21T13:13:34.385Z,22.67
2019-02-21T13:16:00.367Z,25.70
2019-02-21T13:18:26.345Z,24.24
2019-02-21T13:20:52.355Z,23.96
2019-02-21T13:23:18.287Z,22.81
2019-02-21T13:25:44.130Z,21.78
2019-02-21T13:28:10.033Z,23.47
2019-02-21T13:30:35.897Z,25.23
2019-02-21T13:33:01.825Z,23.66
2019-02-21T13:35:29.371Z,25.55
2019-02-21T13:37:55.383Z,22.97
2019-02-21T13:40:21.559Z,23.30
2019-02-21T13:42:47.405Z,24.49
2019-02-21T13:45:17.264Z,21.43
2019-02-21T13:47:42.261Z,19.53
2019-02-21T13:50:15.493Z,23.08
2019-02-21T13:52:41.423Z,21.08
2019-02-21T13:55:07.985Z,19.55
2019-02-21T13:57:33.871Z,22.30
2019-02-21T13:59:59.915Z,22.98
2019-02-21T14:02:25.901Z,23.86
2019-02-21T14:04:51.718Z,22.49
2019-02-21T14:07:17.544Z,21.84
2019-02-21T14:09:43.433Z,24.50
2019-02-21T14:12:09.298Z,25.48
2019-02-21T14:14:35.150Z,25.24
2019-02-21T14:17:05.104Z,25.88
2019-02-21T14:19:30.930Z,22.11
2019-02-21T14:21:56.993Z,24.24
2019-02-21T14:24:22.875Z,22.88
2019-02-21T14:26:48.730Z,26.85
2019-02-21T14:29:14.668Z,24.43
2019-02-21T14:31:40.620Z,23.07
2019-02-21T14:34:06.668Z,22.16
2019-02-21T14:36:32.666Z,22.00
2019-02-21T14:38:58.549Z,21.17
2019-02-21T14:41:24.381Z,25.84
2019-02-21T14:43:50.515Z,26.76
2019-02-21T14:46:16.377Z,22.63
2019-02-21T14:48:42.252Z,27.99
2019-02-21T14:51:08.232Z,26.85
2019-02-21T14:53:34.095Z,25.92
2019-02-21T14:56:00.069Z,26.65
2019-02-21T14:58:26.013Z,21.66
2019-02-21T15:00:51.881Z,24.08
2019-02-21T15:03:21.904Z,23.27
2019-02-21T15:05:45.727Z,22.79
2019-02-21T15:08:11.594Z,22.83
2019-02-21T15:10:37.442Z,23.03
2019-02-21T15:13:03.365Z,26.65
2019-02-21T15:15:29.460Z,24.63
2019-02-21T15:18:06.573Z,24.88
2019-02-21T15:20:23.382Z,24.54
2019-02-21T15:22:49.287Z,29.03
2019-02-21T15:25:15.236Z,28.03
2019-02-21T15:27:41.254Z,26.00
2019-02-21T15:30:10.712Z,27.65
2019-02-21T15:32:37.777Z,32.97
2019-02-21T15:35:04.238Z,35.90
2019-02-21T15:37:30.189Z,37.88
2019-02-21T15:39:56.013Z,37.90
2019-02-21T15:42:22.000Z,39.51
2019-02-21T15:44:47.859Z,40.99
2019-02-21T15:47:13.688Z,41.90
2019-02-21T15:49:39.564Z,41.65
2019-02-21T15:52:05.598Z,41.34
2019-02-21T15:54:31.473Z,41.87
2019-02-21T15:56:57.342Z,43.35
2019-02-21T15:59:23.191Z,43.89
2019-02-21T16:01:49.385Z,44.25
2019-02-21T16:04:15.352Z,44.31
2019-02-21T16:06:51.142Z,44.48
2019-02-21T16:09:16.226Z,45.51
2019-02-21T16:11:36.862Z,45.91
2019-02-21T16:14:03.714Z,46.22
2019-02-21T16:16:29.874Z,46.27
2019-02-21T16:18:59.189Z,46.50
2019-02-21T16:21:25.256Z,46.75
2019-02-21T16:23:51.258Z,46.72
2019-02-21T16:26:17.315Z,47.41
2019-02-21T16:28:43.287Z,48.30
2019-02-21T16:31:09.120Z,48.08
2019-02-21T16:33:35.019Z,49.06
2019-02-21T16:36:01.190Z,50.00
2019-02-21T16:38:27.132Z,50.00
2019-02-21T16:40:53.031Z,50.44
2019-02-21T16:43:19.806Z,51.00
2019-02-21T16:45:47.152Z,50.82
2019-02-21T16:48:13.525Z,51.15
2019-02-21T16:50:39.339Z,51.45
2019-02-21T16:53:05.194Z,51.64
2019-02-21T16:55:31.367Z,51.83
2019-02-21T16:57:57.352Z,52.31
2019-02-21T17:00:23.831Z,52.44
2019-02-21T17:02:49.969Z,53.95
2019-02-21T17:05:15.805Z,54.17
2019-02-21T17:07:41.891Z,53.94
2019-02-21T17:10:10.723Z,54.33
2019-02-21T17:12:37.176Z,54.46
2019-02-21T17:15:05.643Z,55.82
2019-02-21T17:17:31.522Z,55.36
2019-02-21T17:19:57.455Z,57.15
2019-02-21T17:22:23.409Z,55.55
2019-02-21T17:24:49.280Z,56.46
2019-02-21T17:27:15.166Z,55.87
2019-02-21T17:29:41.054Z,57.91
2019-02-21T17:32:06.891Z,57.43
2019-02-21T17:34:32.721Z,57.09
2019-02-21T17:36:58.584Z,57.80
2019-02-21T17:39:24.547Z,58.23
2019-02-21T17:41:50.902Z,58.74
2019-02-21T17:44:16.735Z,58.59
2019-02-21T17:46:42.710Z,58.30
2019-02-21T17:49:08.544Z,58.86
2019-02-21T17:51:34.493Z,59.30
2019-02-21T17:54:00.556Z,59.45
2019-02-21T17:56:26.485Z,59.68
2019-02-21T17:58:52.442Z,59.60
2019-02-21T18:01:18.297Z,60.25
2019-02-21T18:03:44.325Z,60.14
2019-02-21T18:06:10.247Z,60.59
2019-02-21T18:08:36.074Z,60.35
2019-02-21T18:11:02.045Z,60.54
2019-02-21T18:13:28.371Z,61.47
2019-02-21T18:15:54.404Z,60.88
2019-02-21T18:18:20.368Z,61.16
2019-02-21T18:20:46.381Z,61.10
2019-02-21T18:23:12.547Z,60.80
2019-02-21T18:25:47.803Z,60.75
2019-02-21T18:28:13.762Z,61.36
2019-02-21T18:30:39.681Z,61.85
2019-02-21T18:33:05.782Z,61.23
2019-02-21T18:35:31.857Z,61.16
2019-02-21T18:37:57.769Z,61.71
2019-02-21T18:40:25.002Z,61.77
2019-02-21T18:42:51.051Z,62.65
2019-02-21T18:45:16.990Z,61.95
2019-02-21T18:47:43.129Z,61.94
2019-02-21T18:50:10.770Z,62.03
2019-02-21T18:52:36.706Z,61.54
2019-02-21T18:55:04.279Z,61.78
2019-02-21T18:57:30.281Z,62.00
2019-02-21T18:59:56.199Z,62.03
2019-02-21T19:02:22.134Z,62.21
2019-02-21T19:04:48.064Z,62.62
2019-02-21T19:07:14.063Z,62.09
2019-02-21T19:09:39.894Z,62.05
2019-02-21T19:12:05.993Z,62.39
2019-02-21T19:14:31.835Z,62.45
2019-02-21T19:16:57.766Z,62.67
2019-02-21T19:19:23.765Z,62.99
2019-02-21T19:21:49.868Z,63.30
2019-02-21T19:24:17.733Z,62.75
2019-02-21T19:26:43.624Z,63.58
2019-02-21T19:29:09.564Z,62.89
2019-02-21T19:31:35.522Z,62.53
2019-02-21T19:34:01.699Z,62.24
2019-02-21T19:36:27.545Z,61.92
2019-02-21T19:38:53.489Z,61.81
2019-02-21T19:41:19.514Z,61.89
2019-02-21T19:43:45.531Z,61.92
2019-02-21T19:46:11.585Z,62.70
2019-02-21T19:48:37.586Z,62.28
2019-02-21T19:51:03.823Z,62.55
2019-02-21T19:53:29.898Z,63.04
2019-02-21T19:55:55.908Z,62.93
2019-02-21T19:58:21.743Z,63.33
2019-02-21T20:00:48.101Z,63.74
2019-02-21T20:03:14.043Z,64.19
2019-02-21T20:05:40.086Z,64.43
2019-02-21T20:08:08.969Z,64.55
2019-02-21T20:10:33.930Z,63.92
2019-02-21T20:13:01.761Z,63.80
2019-02-21T20:15:27.710Z,63.51
2019-02-21T20:17:53.913Z,63.25
2019-02-21T20:20:25.375Z,63.01
2019-02-21T20:22:51.427Z,62.85
2019-02-21T20:25:17.483Z,63.05
2019-02-21T20:27:43.441Z,63.49
2019-02-21T20:30:12.434Z,63.61
2019-02-21T20:32:38.519Z,64.37
2019-02-21T20:35:04.801Z,64.82
2019-02-21T20:37:30.719Z,64.42
2019-02-21T20:39:56.786Z,63.93
2019-02-21T20:42:24.581Z,63.84
2019-02-21T20:44:50.629Z,63.80
2019-02-21T20:47:16.675Z,64.22
2019-02-21T20:49:42.596Z,64.38
2019-02-21T20:52:08.490Z,65.11
2019-02-21T20:54:34.518Z,64.29
2019-02-21T20:57:00.552Z,65.02
2019-02-21T20:59:26.510Z,64.51
2019-02-21T21:01:52.449Z,64.36
2019-02-21T21:04:18.323Z,64.20
2019-02-21T21:06:44.413Z,64.48
2019-02-21T21:09:10.811Z,64.83
2019-02-21T21:11:36.855Z,65.11
2019-02-21T21:14:02.868Z,64.62
2019-02-21T21:16:28.719Z,65.27
2019-02-21T21:18:54.555Z,64.61
2019-02-21T21:21:20.555Z,65.07
2019-02-21T21:23:49.260Z,65.09
2019-02-21T21:26:19.163Z,65.50
2019-02-21T21:28:45.019Z,65.24
2019-02-21T21:31:10.956Z,64.86
2019-02-21T21:33:36.813Z,65.43
2019-02-21T21:36:02.880Z,65.71
2019-02-21T21:38:30.469Z,66.37
2019-02-21T21:40:56.402Z,66.11
2019-02-21T21:43:23.214Z,66.40
2019-02-21T21:45:49.299Z,66.42
2019-02-21T21:48:15.235Z,66.72
2019-02-21T21:50:41.271Z,66.46
2019-02-21T21:53:07.270Z,66.16
2019-02-21T21:55:33.127Z,65.92
2019-02-21T21:57:59.086Z,66.11
2019-02-21T22:00:25.148Z,66.02
2019-02-21T22:02:51.200Z,66.03
2019-02-21T22:05:17.123Z,65.72
2019-02-21T22:07:43.200Z,65.69
2019-02-21T22:10:10.856Z,65.74
2019-02-21T22:12:36.720Z,65.79
2019-02-21T22:15:05.050Z,65.58
2019-02-21T22:17:30.904Z,65.38
2019-02-21T22:19:56.815Z,65.48
2019-02-21T22:22:22.664Z,65.40
2019-02-21T22:24:48.460Z,65.22
2019-02-21T22:27:14.446Z,65.12
2019-02-21T22:29:40.226Z,64.98
2019-02-21T22:32:06.203Z,65.13
2019-02-21T22:34:32.091Z,65.38
2019-02-21T22:36:57.902Z,65.41
2019-02-21T22:39:23.826Z,65.56
2019-02-21T22:41:50.188Z,65.30
2019-02-21T22:44:16.028Z,65.35
2019-02-21T22:46:42.061Z,65.82
2019-02-21T22:49:07.891Z,65.94
2019-02-21T22:51:33.750Z,65.56
2019-02-21T22:53:59.627Z,65.86
2019-02-21T22:56:25.603Z,65.40
2019-02-21T22:58:51.539Z,65.15
2019-02-21T23:01:24.291Z,65.70
2019-02-21T23:03:53.549Z,66.12
2019-02-21T23:06:32.523Z,66.44
2019-02-21T23:08:58.469Z,66.99
2019-02-21T23:11:24.533Z,67.00
2019-02-21T23:13:50.610Z,66.54
2019-02-21T23:16:16.557Z,65.99
2019-02-21T23:18:42.608Z,65.31
2019-02-21T23:21:08.711Z,65.18
2019-02-21T23:23:34.646Z,65.49
2019-02-21T23:26:00.682Z,66.02
2019-02-21T23:28:29.939Z,66.40
2019-02-21T23:30:55.761Z,65.67
2019-02-21T23:33:23.187Z,65.72
2019-02-21T23:35:49.085Z,65.88
2019-02-21T23:38:15.016Z,66.41
2019-02-21T23:40:41.056Z,66.33
2019-02-21T23:43:07.086Z,66.34
2019-02-21T23:45:33.124Z,66.58
2019-02-21T23:47:59.063Z,66.21
2019-02-21T23:50:25.146Z,65.78
2019-02-21T23:52:51.013Z,66.12
2019-02-21T23:55:16.912Z,66.34
2019-02-21T23:57:42.763Z,65.54
